• Join FlightAware (Why Join?)
  • Login
  • US Flag 
02:37PM EDT


 

Airport Tracker/Info


-or-


 

Live Flight TrackerFlight Track Log ✈ N860BA ✈ 11-May-2013 ✈ KAPF - KACK

Flight Track Log - Related Links

Times and Time Zones

All times are in EDT time to prevent confusion due to time zone crossing. See the N860BA flight status page for this flight to view local times or setup timezone preferences in your user account.

Time Position Orientation Groundspeed Altitude Reporting Facility
EDT Latitude Longitude Course Direction KTS MPH feet Rate Location/Type
11:47AM 26.1594 -81.8675 North 234 269 3,700  Level Miami Center
11:48AM 26.1956 -81.9153 310° West 273 314 3,900 1,860 Climbing Miami Center
11:49AM 26.2761 -81.9394 345° North 262 302 7,500 3,000 Climbing Miami Center
11:50AM 26.3544 -81.9106 18° North 264 304 9,900 1,920 Climbing Miami Center
11:51AM 26.4447 -81.8889 12° North 287 330 11,400 1,680 Climbing Miami Center
11:52AM 26.5397 -81.8650 13° North 331 381 13,300 1,860 Climbing Miami Center
11:53AM 26.8722 -81.7457 North  Level FlightAware Approximate
11:53AM 26.6428 -81.8414 12° North 356 410 15,200  Level Miami Center
11:54AM 26.7458 -81.8133 14° North 368 423 17,300 2,160 Climbing Miami Center
11:55AM 26.8511 -81.7900 11° North 375 432 19,600 2,280 Climbing Miami Center
11:56AM 26.9500 -81.7639 13° North 375 432 21,900 2,160 Climbing Miami Center
11:57AM 27.0528 -81.7564 North 364 419 24,000 1,560 Climbing Miami Center
11:58AM 27.1531 -81.7514 North 364 419 25,100 900 Climbing Miami Center
11:59AM 27.2522 -81.7183 17° North 385 443 25,900 780 Climbing Miami Center
12:00PM 27.3606 -81.6619 25° Northeast 416 479 26,700 840 Climbing Miami Center
12:01PM 27.4758 -81.5803 32° Northeast 445 512 27,600 840 Climbing Miami Center
12:02PM 27.5944 -81.5289 21° North 445 512 28,400 780 Climbing Miami Center
12:03PM 27.7172 -81.5386 356° North 433 498 29,200 660 Climbing Miami Center
12:04PM 27.8300 -81.5408 359° North 439 505 29,800 660 Climbing Miami Center
12:05PM 27.9594 -81.5392 North 446 513 30,600 780 Climbing Miami Center
12:06PM 28.0844 -81.5397 360° North 451 519 31,400 840 Climbing Miami Center
12:07PM 28.2078 -81.5378 North 451 519 32,300 900 Climbing Miami Center
12:08PM 28.3350 -81.5358 North 446 513 33,300 1,020 Climbing Miami Center
12:09PM 28.4561 -81.5364 360° North 440 506 34,400 900 Climbing Miami Center
12:10PM 28.5708 -81.5317 North 429 494 35,200 720 Climbing Miami Center
12:12PM 28.7167 -81.5314 360° North 424 488 36,000 720 Climbing Jacksonville Center
12:13PM 28.8336 -81.5322 360° North 424 488 36,700 480 Climbing Jacksonville Center
12:14PM 28.9544 -81.5306 North 419 482 37,000 120 Climbing Jacksonville Center
12:15PM 29.0756 -81.5289 North 425 489 37,000  Level Jacksonville Center
12:16PM 29.1925 -81.5272 North 420 483 37,000  Level Jacksonville Center
12:17PM 29.2947 -81.5283 359° North 414 476 37,000  Level Jacksonville Center
12:18PM 29.4136 -81.5242 North 414 476 37,000  Level Jacksonville Center
12:19PM 29.5283 -81.5225 North 414 476 37,000  Level Jacksonville Center
12:20PM 29.6433 -81.5208 North 414 476 37,000  Level Jacksonville Center
12:21PM 29.7622 -81.5192 North 419 482 37,000  Level Jacksonville Center
12:22PM 29.8769 -81.5178 North 419 482 37,000  Level Jacksonville Center
12:23PM 29.9919 -81.5161 North 419 482 37,000  Level Jacksonville Center
12:24PM 30.1086 -81.5144 North 419 482 37,000  Level Jacksonville Center
12:25PM 30.2278 -81.5125 North 419 482 37,000  Level Jacksonville Center
12:26PM 30.3447 -81.5086 North 419 482 37,000  Level Jacksonville Center
12:27PM 30.4633 -81.4706 15° North 424 488 37,000  Level Jacksonville Center
12:28PM 30.5942 -81.4253 17° North 439 505 37,000  Level Jacksonville Center
12:29PM 30.7128 -81.3847 16° North 439 505 37,000  Level Jacksonville Center
12:30PM 30.8333 -81.3467 15° North 439 505 37,000  Level Jacksonville Center
12:31PM 30.9519 -81.3033 17° North 434 499 37,000 60 Level Jacksonville Center
12:32PM 31.0744 -81.2650 15° North 440 506 37,200 480 Climbing Jacksonville Center
12:33PM 31.1933 -81.2483 North 422 486 38,000 600 Climbing Jacksonville Center
12:34PM 31.3122 -81.2367 North 422 486 38,500 540 Climbing Jacksonville Center
12:35PM 31.4222 -81.1811 23° Northeast 431 496 39,100 300 Climbing Jacksonville Center
12:36PM 31.5294 -81.0817 38° Northeast 462 532 39,100 -60 Level Jacksonville Center
12:37PM 31.6344 -80.9942 35° Northeast 478 550 39,000 60 Descending Jacksonville Center
12:38PM 31.7314 -80.9117 36° Northeast 470 541 39,300 300 Climbing Jacksonville Center
12:39PM 31.8531 -80.8111 35° Northeast 476 548 39,700 360 Climbing Jacksonville Center
12:40PM 31.9581 -80.7206 36° Northeast 476 548 40,100 420 Climbing Jacksonville Center
12:41PM 32.0669 -80.6250 37° Northeast 471 542 40,600 360 Climbing Jacksonville Center
12:42PM 32.1717 -80.5364 36° Northeast 471 542 40,900 180 Climbing Jacksonville Center
12:43PM 32.2767 -80.4478 36° Northeast 471 542 41,000  Climbing Jacksonville Center
12:44PM 32.3833 -80.3539 37° Northeast 471 542 41,000  Level Jacksonville Center
12:45PM 32.4878 -80.2647 36° Northeast 471 542 41,000  Level Jacksonville Center
12:46PM 32.5883 -80.1756 37° Northeast 471 542 41,000  Level Jacksonville Center
12:47PM 32.6928 -80.0861 36° Northeast 471 542 41,000  Level Jacksonville Center
12:48PM 32.7972 -79.9939 37° Northeast 471 542 41,000  Level Jacksonville Center
12:49PM 32.9014 -79.9014 37° Northeast 471 542 41,000  Level Jacksonville Center
12:50PM 33.0036 -79.8114 36° Northeast 471 542 41,000  Level Jacksonville Center
12:51PM 33.1078 -79.7208 36° Northeast 471 542 41,000  Level Jacksonville Center
12:52PM 33.2119 -79.6303 36° Northeast 466 536 41,000 -60 Level Jacksonville Center
12:53PM 33.3142 -79.5422 36° Northeast 466 536 40,900  Descending Jacksonville Center
12:54PM 33.4200 -79.4486 36° Northeast 466 536 41,000  Climbing Jacksonville Center
12:55PM 33.5239 -79.3547 37° Northeast 466 536 41,000  Level Jacksonville Center
12:56PM 33.6256 -79.2608 38° Northeast 466 536 41,000  Level Jacksonville Center
12:57PM 33.7253 -79.1769 35° Northeast 460 529 41,000  Level Jacksonville Center
12:58PM 33.8311 -79.0825 37° Northeast 455 524 41,000  Level Jacksonville Center
12:59PM 33.9367 -78.9903 36° Northeast 461 531 41,000  Level Jacksonville Center
01:00PM 34.0403 -78.8956 37° Northeast 466 536 41,000  Level Jacksonville Center
01:01PM 34.2075 -78.7433 37° Northeast 469 540 41,000  Level Washington Center
01:02PM 34.3122 -78.6494 37° Northeast 469 540 41,000  Level Washington Center
01:03PM 34.4150 -78.5475 39° Northeast 469 540 41,000  Level Washington Center
01:04PM 34.5156 -78.4453 40° Northeast 469 540 41,000  Level Washington Center
01:05PM 34.6181 -78.3428 39° Northeast 469 540 41,000  Level Washington Center
01:06PM 34.7206 -78.2350 41° Northeast 469 540 41,000  Level Washington Center
01:07PM 34.8253 -78.1222 41° Northeast 464 534 41,000  Level Washington Center
01:08PM 34.9297 -78.0114 41° Northeast 464 534 41,000  Level Washington Center
01:09PM 35.0297 -77.9103 40° Northeast 472 543 41,000  Level Washington Center
01:10PM 35.1319 -77.8042 40° Northeast 472 543 41,000  Level Washington Center
01:11PM 35.2361 -77.7000 39° Northeast 472 543 41,000  Level Washington Center
01:12PM 35.3361 -77.5933 41° Northeast 477 549 41,000  Level Washington Center
01:13PM 35.4442 -77.4939 37° Northeast 477 549 41,000  Level Washington Center
01:14PM 35.5497 -77.4047 34° Northeast 471 542 41,000  Level Washington Center
01:15PM 35.6578 -77.3075 36° Northeast 471 542 41,000  Level Washington Center
01:16PM 35.7653 -77.2150 35° Northeast 471 542 41,000  Level Washington Center
01:17PM 35.8689 -77.1197 37° Northeast 476 548 41,000 -60 Level Washington Center
01:18PM 35.9764 -77.0242 36° Northeast 471 542 40,900  Descending Washington Center
01:19PM 36.0861 -76.9286 35° Northeast 471 542 41,000  Climbing Washington Center
01:20PM 36.1956 -76.8325 35° Northeast 476 548 41,000  Level Washington Center
01:21PM 36.3028 -76.7336 37° Northeast 476 548 41,000  Level Washington Center
01:22PM 36.4103 -76.6372 36° Northeast 476 548 41,000 -60 Level Washington Center
01:23PM 36.5194 -76.5406 35° Northeast 481 554 40,900  Descending Washington Center
01:24PM 36.6286 -76.4433 36° Northeast 481 554 41,000  Climbing Washington Center
01:25PM 36.7378 -76.3408 37° Northeast 481 554 41,000  Level Washington Center
01:26PM 36.8447 -76.2408 37° Northeast 481 554 41,000  Level Washington Center
01:27PM 36.9619 -76.1586 29° Northeast 481 554 41,000  Level Washington Center
01:28PM 37.0897 -76.1022 19° North 481 554 41,000 -60 Level Washington Center
01:29PM 37.1900 -76.0481 23° Northeast 481 554 40,900  Descending Washington Center
01:30PM 37.3175 -75.9575 29° Northeast 481 554 41,000  Climbing Washington Center
01:31PM 37.4283 -75.8533 37° Northeast 486 559 41,000 -60 Level Washington Center
01:32PM 37.5369 -75.7464 38° Northeast 491 565 40,900  Descending Washington Center
01:33PM 37.6497 -75.6417 36° Northeast 496 571 41,000  Climbing Washington Center
01:34PM 37.7622 -75.5367 36° Northeast 501 577 41,000  Level Washington Center
01:35PM 37.8728 -75.4286 38° Northeast 506 582 41,000  Level Washington Center
01:36PM 37.9850 -75.3231 37° Northeast 506 582 41,000  Level Washington Center
01:37PM 38.0953 -75.2144 38° Northeast 506 582 41,000  Level Washington Center
01:38PM 38.2075 -75.1056 37° Northeast 506 582 41,000 -60 Level Washington Center
01:39PM 38.3175 -74.9989 37° Northeast 506 582 40,900  Descending Washington Center
01:40PM 38.4294 -74.8894 37° Northeast 506 582 41,000  Climbing Washington Center
01:41PM 38.5436 -74.7767 38° Northeast 511 588 40,900 -60 Descending Washington Center
01:42PM 38.6553 -74.6692 37° Northeast 506 582 40,900  Level Washington Center
01:43PM 38.7669 -74.5611 37° Northeast 506 582 40,900  Level Washington Center
01:44PM 38.8786 -74.4503 38° Northeast 506 582 40,900  Level Washington Center
01:45PM 38.9858 -74.3419 38° Northeast 506 582 40,900  Level Washington Center
01:46PM 39.1097 -74.2194 37° Northeast 506 582 40,900  Level Washington Center
01:47PM 39.2186 -74.1075 39° Northeast 506 582 40,900  Level Washington Center
01:48PM 39.3278 -74.0006 37° Northeast 506 582 40,900  Level Washington Center
01:49PM 39.4408 -73.8878 38° Northeast 506 582 40,900  Level Washington Center
01:51PM 39.5903 -73.7322 39° Northeast 504 580 40,900  Level Boston Center
01:52PM 39.7250 -73.6000 37° Northeast 499 574 40,900  Level Boston Center
01:53PM 39.8344 -73.4856 39° Northeast 499 574 40,900  Level Boston Center
01:54PM 39.9564 -73.3658 37° Northeast 499 574 41,000  Climbing Boston Center
01:55PM 40.0656 -73.2508 39° Northeast 493 567 41,000 -300 Level Boston Center
01:56PM 40.1536 -73.1622 38° Northeast 498 573 40,400 -840 Descending Boston Center
01:57PM 40.2775 -73.0167 42° Northeast 518 596 39,400 -780 Descending Boston Center
01:58PM 40.3469 -72.8431 62° Northeast 518 596 38,900 -300 Descending Boston Center
01:59PM 40.4183 -72.6717 61° Northeast 527 606 38,900 -660 Level Boston Center
02:00PM 40.4811 -72.4947 65° Northeast 527 606 37,600 -2,400 Descending Boston Center
02:01PM 40.5519 -72.3253 61° Northeast 527 606 34,200 -3,720 Descending Boston Center
02:02PM 40.6142 -72.1586 64° Northeast 514 592 30,200 -3,900 Descending Boston Center
02:03PM 40.6761 -71.9969 63° Northeast 499 574 26,400 -3,840 Descending Boston Center
02:04PM 40.7358 -71.8403 63° Northeast 487 560 22,600 -3,240 Descending Boston Center
02:05PM 40.8036 -71.6889 59° Northeast 479 551 20,000 -1,380 Descending Boston Center
02:06PM 40.8544 -71.5347 66° East 465 535 19,900 -60 Descending Boston Center
02:07PM 40.9094 -71.3856 64° Northeast 455 524 19,900 -960 Level Boston Center
02:08PM 40.9644 -71.2417 63° Northeast 442 509 18,000 -2,580 Descending Boston Center
02:09PM 41.0169 -71.1058 63° Northeast 423 487 14,800 -3,300 Descending Boston Center
02:10PM 41.0592 -70.9675 68° East 378 435 11,400 -2,400 Descending Boston Center
02:11PM 41.0828 -70.8758 71° East 351 404 10,000 -780 Descending Boston Center
02:12PM 41.1186 -70.7567 68° East 327 376 9,900 -420 Descending Boston Center
02:13PM 41.1378 -70.6514 76° East 310 357 9,200 -960 Descending Boston Center
02:14PM 41.1567 -70.5294 78° East 287 330 7,600 -1,620 Descending Boston Center
02:15PM 41.1714 -70.4133 80° East 275 316 5,400 -1,920 Descending Boston Center
02:16PM 41.1842 -70.3136 80° East 270 311 3,800 -1,260 Descending Boston Center
02:17PM 41.1906 -70.2169 85° East 265 305 2,900 -600 Descending Boston Center
02:18PM 41.1886 -70.1258 92° East 258 297 2,700 -60 Descending Boston Center
02:19PM 41.1997 -70.0564 78° East 221 254 2,800 -120 Climbing Boston Center
02:20PM 41.2361 -69.9972 51° Northeast 194 223 2,500 -780 Descending Boston Center
02:22PM 41.2797 -69.9956 North 167 192 1,100 -960 Descending Boston Center
02:23PM 41.2725 -70.0456 259° West 58 67 400 4,920 Descending Boston Center
02:24PM 41.2894 -70.0642 320° Northwest 58 67 11,000 5,280 Climbing Boston Center
02:25PM 41.3006 -70.0858 304° West 58 67 11,000  Level Boston Center